AGROMETEOROLOŠKI PORTAL

vinorodna pokrajina

Temelj dobrega kmetovanja

Pregled podatkov za lokacijo Zbigovci, meteorološka postaja 516317

Pregled senzorjev na lokaciji

ID Ime Zadnja
vrednost
Datum in čas
meritve
(lokalni čas)
Tip
senzorja
7026 Omočenost lista (1,5 m) (U) 0 U 29.1.2023 06:30 A730WET
7025 Padavine (mm) 0 mm 29.1.2023 06:30 Generic 0.2 mm
7028 Relativna zračna vlaga (2 m) (%RH) 91 %RH 29.1.2023 06:30 50YA
7027 Temperatura (2 m) (°C) -0,8 °C 29.1.2023 06:30 50YA

Pregled podatkov zadnjih 24 ur

Zap.
št.
Datum in čas
(lokalni čas)
Zbigovci
Omočenost
lista
(1,5
m)
Padavine Relativna
zračna
vlaga
(2
m)
Temperatura
(2
m)
1 29.1.2023 06:30 0 0 90,7 -0,8
2 29.1.2023 06:00 0 0 91,3 -0,8
3 29.1.2023 05:30 0 0 92,5 -0,8
4 29.1.2023 05:00 0 0 93,6 -0,9
5 29.1.2023 04:30 0 0 91,6 -0,7
6 29.1.2023 04:00 0 0 89,2 -0,6
7 29.1.2023 03:30 0 0 88,7 -0,5
8 29.1.2023 03:00 0 0 89,3 -0,5
9 29.1.2023 02:30 0 0 86,9 -0,3
10 29.1.2023 02:00 0 0 85,6 -0,1
11 29.1.2023 01:30 0 0 85,8 -0,1
12 29.1.2023 01:00 0 0 89,2 -0,4
13 29.1.2023 00:30 0 0 91,6 -0,6
14 29.1.2023 00:00 0 0 93,1 -0,7
15 28.1.2023 23:30 0 0 92,2 -0,6
16 28.1.2023 23:00 0 0 92,9 -0,6
17 28.1.2023 22:30 0 0 93,4 -0,7
18 28.1.2023 22:00 0 0 93,9 -0,7
19 28.1.2023 21:30 0 0 94,8 -0,8
20 28.1.2023 21:00 0 0 95,1 -0,8
21 28.1.2023 20:30 0 0 94,8 -0,8
22 28.1.2023 20:00 0 0 94,6 -0,8
23 28.1.2023 19:30 0 0 94,1 -0,8
24 28.1.2023 19:00 0 0 93 -0,8
25 28.1.2023 18:30 0 0 92,9 -0,8
26 28.1.2023 18:00 0 0 91,9 -0,7
27 28.1.2023 17:30 0 0 90,1 -0,6
28 28.1.2023 17:00 0 0 88,4 -0,4
29 28.1.2023 16:30 0 0 87,6 -0,3
30 28.1.2023 16:00 0 0 86,4 -0,2
31 28.1.2023 15:30 0 0 87,3 -0,2
32 28.1.2023 15:00 0 0 88,4 -0,1
33 28.1.2023 14:30 0 0 88,1 0
34 28.1.2023 14:00 2 0 87,9 0
35 28.1.2023 13:30 0 0 87,5 0
36 28.1.2023 13:00 1 0 87,6 -0,1
37 28.1.2023 12:30 1 0 87,6 -0,3
38 28.1.2023 12:00 1 0,2 86,6 -0,3
39 28.1.2023 11:30 1 0 85,4 -0,3
40 28.1.2023 11:00 4 0 86 -0,5
41 28.1.2023 10:30 3 0 89 -1
42 28.1.2023 10:00 0 0 85,6 -1,1
43 28.1.2023 09:30 0 0 85,7 -1,1
44 28.1.2023 09:00 0 0 91,2 -1,4
45 28.1.2023 08:30 0 0 92,4 -1,6
46 28.1.2023 08:00 0 0 91,7 -1,6
47 28.1.2023 07:30 0 0 87,7 -1,5
48 28.1.2023 07:00 0 0 84 -1,3